Time;durP1;ratioP1;P1;durP2;ratioP2;P2;SDS_P1;SDS_P2;PMS_P1;PMS_P2;Temp;Humidity;BMP_temperature;BMP_pressure;BME280_temperature;BME280_humidity;BME280_pressure;Samples;Min_cycle;Max_cycle;Signal;HPM_P1;HPM_P2
2023/08/01 00:01:49;;;;;;;7.93;3.05;;;;;;;-144.48;100.00;62369.91;5012193;28;20091;-69
2023/08/01 00:04:16;;;;;;;12.75;4.22;;;;;;;-144.48;100.00;62369.91;5011326;28;20026;-68
2023/08/01 00:06:41;;;;;;;8.85;3.13;;;;;;;-144.48;100.00;62369.91;5011453;28;20511;-67
2023/08/01 00:09:07;;;;;;;6.72;3.38;;;;;;;-144.48;100.00;62369.91;5011293;28;20033;-67
2023/08/01 00:11:32;;;;;;;13.65;3.20;;;;;;;-144.48;100.00;62369.91;5011030;28;20101;-66
2023/08/01 00:13:58;;;;;;;16.35;3.28;;;;;;;-144.48;100.00;62369.91;5010862;28;20065;-66
2023/08/01 00:16:23;;;;;;;8.10;2.92;;;;;;;-144.48;100.00;62369.91;5010958;28;20532;-66
2023/08/01 00:18:49;;;;;;;5.35;2.53;;;;;;;-144.48;100.00;62369.91;5011279;28;20038;-67
2023/08/01 00:21:15;;;;;;;8.25;3.15;;;;;;;-144.48;100.00;62369.91;4993570;28;20113;-67
2023/08/01 00:23:40;;;;;;;8.73;2.95;;;;;;;-144.48;100.00;62369.91;5010788;28;20503;-67
2023/08/01 00:26:05;;;;;;;12.07;3.00;;;;;;;-144.48;100.00;62369.91;5010292;28;20018;-66
2023/08/01 00:28:31;;;;;;;8.43;3.10;;;;;;;-144.48;100.00;62369.91;5010717;28;20095;-67
2023/08/01 00:31:08;;;;;;;7.55;2.90;;;;;;;-144.48;100.00;62369.91;5009118;28;20407;-65
2023/08/01 00:33:34;;;;;;;5.70;2.30;;;;;;;-144.48;100.00;62369.91;4992533;28;20025;-66
2023/08/01 00:36:00;;;;;;;6.25;2.60;;;;;;;-144.48;100.00;62369.91;5010957;28;20087;-65
2023/08/01 00:38:26;;;;;;;5.95;2.30;;;;;;;-144.48;100.00;62369.91;5010982;28;20077;-67
2023/08/01 00:40:51;;;;;;;11.02;2.38;;;;;;;-144.48;100.00;62369.91;4992365;28;20029;-68
2023/08/01 00:43:17;;;;;;;9.73;2.55;;;;;;;-144.48;100.00;62369.91;5010701;28;20032;-65
2023/08/01 00:45:42;;;;;;;12.10;3.08;;;;;;;-144.48;100.00;62369.91;5010541;28;20456;-67
2023/08/01 00:48:08;;;;;;;8.80;2.60;;;;;;;-144.48;100.00;62369.91;5010847;28;20038;-64
2023/08/01 00:50:34;;;;;;;9.52;2.88;;;;;;;-144.48;100.00;62369.91;5010487;28;20404;-66
2023/08/01 00:53:00;;;;;;;5.55;2.22;;;;;;;-144.48;100.00;62369.91;5011196;28;20383;-67
2023/08/01 00:55:29;;;;;;;8.48;2.60;;;;;;;-144.48;100.00;62369.91;5010001;28;20344;-66
2023/08/01 00:57:54;;;;;;;6.10;2.42;;;;;;;-144.48;100.00;62369.91;5010545;28;20056;-64
2023/08/01 01:00:20;;;;;;;9.13;2.90;;;;;;;-144.48;100.00;62369.91;5010185;28;20061;-66
2023/08/01 01:02:45;;;;;;;9.80;2.72;;;;;;;-144.48;100.00;62369.91;5009328;28;20423;-64
2023/08/01 01:05:13;;;;;;;6.80;2.85;;;;;;;-144.48;100.00;62369.91;5009896;28;20045;-66
2023/08/01 01:07:39;;;;;;;5.07;2.50;;;;;;;-144.48;100.00;62369.91;5010047;28;20038;-65
2023/08/01 01:10:05;;;;;;;8.10;3.25;;;;;;;-144.48;100.00;62369.91;5009907;28;20028;-68
2023/08/01 01:12:30;;;;;;;8.40;2.55;;;;;;;-144.48;100.00;62369.91;5009890;28;20030;-67
2023/08/01 01:14:56;;;;;;;7.07;2.50;;;;;;;-144.48;100.00;62369.91;5009907;28;20034;-67
2023/08/01 01:17:21;;;;;;;7.30;2.67;;;;;;;-144.48;100.00;62369.91;5009954;28;20032;-67
2023/08/01 01:19:46;;;;;;;12.30;2.42;;;;;;;-144.48;100.00;62369.91;5010025;28;20116;-66
2023/08/01 01:22:12;;;;;;;7.72;2.70;;;;;;;-144.48;100.00;62369.91;5009848;28;20017;-68
2023/08/01 01:24:40;;;;;;;8.32;2.50;;;;;;;-144.48;100.00;62369.91;5009433;28;20069;-65
2023/08/01 01:27:07;;;;;;;6.22;2.92;;;;;;;-144.48;100.00;62369.91;5009712;28;20056;-67
2023/08/01 01:29:34;;;;;;;7.47;2.90;;;;;;;-144.48;100.00;62369.91;5009594;28;20462;-66
2023/08/01 01:32:01;;;;;;;6.20;2.33;;;;;;;-144.48;100.00;62369.91;5004289;28;20021;-67
2023/08/01 01:34:28;;;;;;;6.32;2.42;;;;;;;-144.48;100.00;62369.91;4992866;28;20472;-67
2023/08/01 01:36:53;;;;;;;6.15;2.58;;;;;;;-144.48;100.00;62369.91;5009857;28;20055;-68
2023/08/01 01:39:19;;;;;;;4.93;2.70;;;;;;;-144.48;100.00;62369.91;4992298;28;20052;-66
2023/08/01 01:41:44;;;;;;;6.40;2.65;;;;;;;-144.48;100.00;62369.91;5009331;28;20026;-66
2023/08/01 01:44:09;;;;;;;5.95;3.03;;;;;;;-144.48;100.00;62369.91;5009451;28;20383;-67
2023/08/01 01:46:35;;;;;;;7.05;2.83;;;;;;;-144.48;100.00;62369.91;5009696;28;20038;-67
2023/08/01 01:49:00;;;;;;;6.38;2.63;;;;;;;-144.48;100.00;62369.91;5009790;28;20030;-69
2023/08/01 01:51:26;;;;;;;8.00;3.00;;;;;;;-144.48;100.00;62369.91;5009745;28;20025;-67
2023/08/01 01:53:52;;;;;;;7.07;2.50;;;;;;;-144.48;100.00;62369.91;5009374;28;20021;-67
2023/08/01 01:56:17;;;;;;;5.95;2.38;;;;;;;-144.48;100.00;62369.91;5009346;28;20559;-67
2023/08/01 01:58:43;;;;;;;6.75;2.88;;;;;;;-144.48;100.00;62369.91;5009609;28;20110;-69
2023/08/01 02:01:08;;;;;;;6.78;2.97;;;;;;;-144.48;100.00;62369.91;5009263;28;20038;-65
2023/08/01 02:03:35;;;;;;;7.32;2.97;;;;;;;-144.48;100.00;62369.91;5009023;28;20128;-67
2023/08/01 02:06:03;;;;;;;8.68;3.10;;;;;;;-144.48;100.00;62369.91;5009628;28;20033;-68
2023/08/01 02:08:28;;;;;;;9.63;3.17;;;;;;;-144.48;100.00;62369.91;5009919;28;20030;-66
2023/08/01 02:10:55;;;;;;;5.38;2.30;;;;;;;-144.48;100.00;62369.91;4991970;28;20022;-67
2023/08/01 02:13:23;;;;;;;5.13;2.47;;;;;;;-144.48;100.00;62369.91;5011035;28;20040;-67
2023/08/01 02:15:48;;;;;;;7.95;2.75;;;;;;;-144.48;100.00;62369.91;5013271;28;20045;-66
2023/08/01 02:18:14;;;;;;;8.88;2.78;;;;;;;-144.48;100.00;62369.91;5013355;28;20407;-67
2023/08/01 02:20:39;;;;;;;10.18;3.42;;;;;;;-144.48;100.00;62369.91;5013529;28;20053;-66
2023/08/01 02:23:04;;;;;;;7.03;2.67;;;;;;;-144.48;100.00;62369.91;5013175;28;20117;-67
2023/08/01 02:25:30;;;;;;;10.30;2.83;;;;;;;-144.48;100.00;62369.91;5012831;28;20028;-67
2023/08/01 02:27:55;;;;;;;9.70;2.97;;;;;;;-144.48;100.00;62369.91;4995344;28;20077;-68
2023/08/01 02:30:20;;;;;;;12.07;3.10;;;;;;;-144.48;100.00;62369.91;5013254;28;20033;-67
2023/08/01 02:32:46;;;;;;;5.20;2.53;;;;;;;-144.48;100.00;62369.91;5007469;28;20034;-67
2023/08/01 02:35:12;;;;;;;8.13;2.80;;;;;;;-144.48;100.00;62369.91;5012721;28;20104;-69
2023/08/01 02:37:38;;;;;;;5.25;2.50;;;;;;;-144.48;100.00;62369.91;5013054;28;20033;-67
2023/08/01 02:40:07;;;;;;;6.13;2.42;;;;;;;-144.48;100.00;62369.91;5013232;28;20372;-67
2023/08/01 02:42:32;;;;;;;8.20;2.75;;;;;;;-144.48;100.00;62369.91;5012112;28;20049;-66
2023/08/01 02:44:58;;;;;;;6.80;2.80;;;;;;;-144.48;100.00;62369.91;5012373;28;20080;-66
2023/08/01 02:47:23;;;;;;;8.63;2.92;;;;;;;-144.48;100.00;62369.91;5012381;28;20030;-67
2023/08/01 02:49:48;;;;;;;5.20;2.72;;;;;;;-144.48;100.00;62369.91;5013210;28;20038;-67
2023/08/01 02:52:14;;;;;;;9.77;2.90;;;;;;;-144.48;100.00;62369.91;5012548;28;20721;-68
2023/08/01 02:54:39;;;;;;;6.13;2.70;;;;;;;-144.48;100.00;62369.91;5012614;28;20272;-67
2023/08/01 02:57:05;;;;;;;5.75;2.30;;;;;;;-144.48;100.00;62369.91;5012440;28;20116;-65
2023/08/01 02:59:32;;;;;;;5.82;2.30;;;;;;;-144.48;100.00;62369.91;4995044;28;20036;-65
2023/08/01 03:01:59;;;;;;;14.77;3.38;;;;;;;-144.48;100.00;62369.91;5012397;28;20272;-67
2023/08/01 03:04:24;;;;;;;6.90;2.60;;;;;;;-144.48;100.00;62369.91;5012637;28;20022;-66
2023/08/01 03:06:50;;;;;;;6.22;2.42;;;;;;;-144.48;100.00;62369.91;5012549;28;20108;-65
2023/08/01 03:09:15;;;;;;;6.32;2.45;;;;;;;-144.48;100.00;62369.91;5012681;28;20022;-67
2023/08/01 03:11:41;;;;;;;4.40;2.20;;;;;;;-144.48;100.00;62369.91;5012801;28;20487;-66
2023/08/01 03:14:06;;;;;;;4.68;2.10;;;;;;;-144.48;100.00;62369.91;5012188;28;20113;-67
2023/08/01 03:16:32;;;;;;;5.30;2.00;;;;;;;-144.48;100.00;62369.91;5012454;28;20100;-67
2023/08/01 03:19:00;;;;;;;4.22;2.03;;;;;;;-144.48;100.00;62369.91;5012689;28;20032;-67
2023/08/01 03:21:26;;;;;;;4.43;1.80;;;;;;;-144.48;100.00;62369.91;5012006;28;20029;-67
2023/08/01 03:23:51;;;;;;;4.03;2.00;;;;;;;-144.48;100.00;62369.91;5011947;28;20376;-68
2023/08/01 03:26:18;;;;;;;6.55;2.40;;;;;;;-144.48;100.00;62369.91;4993048;28;20033;-64
2023/08/01 03:28:43;;;;;;;4.78;2.03;;;;;;;-144.48;100.00;62369.91;5011899;28;20037;-66
2023/08/01 03:31:09;;;;;;;4.97;2.40;;;;;;;-144.48;100.00;62369.91;5008783;28;20018;-68
2023/08/01 03:33:34;;;;;;;7.70;2.40;;;;;;;-144.48;100.00;62369.91;5009200;28;20026;-67
2023/08/01 03:35:59;;;;;;;4.97;2.17;;;;;;;-144.48;100.00;62369.91;5011860;28;20022;-67
2023/08/01 03:38:25;;;;;;;7.03;2.30;;;;;;;-144.48;100.00;62369.91;5012375;28;20086;-66
2023/08/01 03:40:50;;;;;;;4.93;2.05;;;;;;;-144.48;100.00;62369.91;5011349;28;20117;-67
2023/08/01 03:43:16;;;;;;;4.53;2.00;;;;;;;-144.48;100.00;62369.91;5011862;28;20044;-66
2023/08/01 03:45:41;;;;;;;4.65;2.00;;;;;;;-144.48;100.00;62369.91;5011972;28;20112;-66
2023/08/01 03:48:07;;;;;;;5.05;1.60;;;;;;;-144.48;100.00;62369.91;5012000;28;20369;-65
2023/08/01 03:50:32;;;;;;;10.80;1.75;;;;;;;-144.48;100.00;62369.91;5011521;28;20037;-66
2023/08/01 03:52:57;;;;;;;4.57;2.10;;;;;;;-144.48;100.00;62369.91;5011756;28;20523;-67
2023/08/01 03:55:23;;;;;;;6.90;2.22;;;;;;;-144.48;100.00;62369.91;5011326;28;20032;-66
2023/08/01 03:57:48;;;;;;;5.55;2.10;;;;;;;-144.48;100.00;62369.91;5011793;28;20105;-65
2023/08/01 04:00:13;;;;;;;6.00;2.35;;;;;;;-144.48;100.00;62369.91;5011618;28;20032;-66
2023/08/01 04:02:42;;;;;;;6.25;2.17;;;;;;;-144.48;100.00;62369.91;5011392;28;20029;-65
2023/08/01 04:05:08;;;;;;;6.30;2.67;;;;;;;-144.48;100.00;62369.91;5011485;28;20036;-68
2023/08/01 04:07:35;;;;;;;7.43;2.10;;;;;;;-144.48;100.00;62369.91;5011931;28;20077;-68
2023/08/01 04:10:01;;;;;;;6.70;2.47;;;;;;;-144.48;100.00;62369.91;5011568;28;20552;-67
2023/08/01 04:12:26;;;;;;;7.00;2.50;;;;;;;-144.48;100.00;62369.91;5011532;28;20038;-65
2023/08/01 04:14:51;;;;;;;5.88;2.10;;;;;;;-144.48;100.00;62369.91;5011184;28;20029;-66
2023/08/01 04:17:17;;;;;;;4.18;2.28;;;;;;;-144.48;100.00;62369.91;5011356;28;20025;-68
2023/08/01 04:19:42;;;;;;;4.47;2.00;;;;;;;-144.48;100.00;62369.91;4981129;28;20087;-66
2023/08/01 04:22:09;;;;;;;9.70;2.25;;;;;;;-144.48;100.00;62369.91;5011326;28;20026;-66
2023/08/01 04:24:34;;;;;;;4.97;2.17;;;;;;;-144.48;100.00;62369.91;5010660;28;20021;-65
2023/08/01 04:26:59;;;;;;;4.68;2.30;;;;;;;-144.48;100.00;62369.91;4993455;28;20510;-67
2023/08/01 04:29:25;;;;;;;5.30;2.00;;;;;;;-144.48;100.00;62369.91;5011199;28;20025;-68
2023/08/01 04:31:50;;;;;;;5.05;2.08;;;;;;;-144.48;100.00;62369.91;4988031;28;20025;-66
2023/08/01 04:34:15;;;;;;;4.05;2.10;;;;;;;-144.48;100.00;62369.91;5010789;28;20044;-66
2023/08/01 04:36:41;;;;;;;6.10;2.25;;;;;;;-144.48;100.00;62369.91;5010254;28;20534;-66
2023/08/01 04:39:06;;;;;;;7.30;2.10;;;;;;;-144.48;100.00;62369.91;5010597;28;20438;-66
2023/08/01 04:41:31;;;;;;;6.32;2.05;;;;;;;-144.48;100.00;62369.91;5010392;28;20030;-66
2023/08/01 04:43:57;;;;;;;6.35;2.00;;;;;;;-144.48;100.00;62369.91;5010458;28;20036;-67
2023/08/01 04:46:22;;;;;;;5.18;2.53;;;;;;;-144.48;100.00;62369.91;4985410;28;20105;-66
2023/08/01 04:48:47;;;;;;;6.53;1.90;;;;;;;-144.48;100.00;62369.91;5005542;28;20053;-67
2023/08/01 04:51:13;;;;;;;7.57;2.15;;;;;;;-144.48;100.00;62369.91;4985309;28;20543;-66
2023/08/01 04:53:38;;;;;;;5.95;1.88;;;;;;;-144.48;100.00;62369.91;5004565;28;20061;-67
2023/08/01 04:56:04;;;;;;;4.32;1.70;;;;;;;-144.48;100.00;62369.91;5010416;28;20033;-68
2023/08/01 04:58:30;;;;;;;4.57;1.90;;;;;;;-144.48;100.00;62369.91;5010168;28;20113;-67
2023/08/01 05:00:55;;;;;;;5.60;2.15;;;;;;;-144.48;100.00;62369.91;5010261;28;20025;-68
2023/08/01 05:03:21;;;;;;;4.70;1.92;;;;;;;-144.48;100.00;62369.91;5010043;28;20026;-66
2023/08/01 05:05:46;;;;;;;9.60;2.03;;;;;;;-144.48;100.00;62369.91;5010391;28;20018;-66
2023/08/01 05:08:11;;;;;;;5.68;1.98;;;;;;;-144.48;100.00;62369.91;5010429;28;20030;-66
2023/08/01 05:10:37;;;;;;;4.18;1.70;;;;;;;-144.48;100.00;62369.91;5010490;28;20017;-67
2023/08/01 05:13:02;;;;;;;5.25;1.88;;;;;;;-144.48;100.00;62369.91;5009977;28;20025;-67
2023/08/01 05:15:28;;;;;;;6.20;2.10;;;;;;;-144.48;100.00;62369.91;5010283;28;20018;-67
2023/08/01 05:17:53;;;;;;;3.22;1.77;;;;;;;-144.48;100.00;62369.91;5010312;28;20172;-66
2023/08/01 05:20:19;;;;;;;7.90;2.45;;;;;;;-144.48;100.00;62369.91;5009914;28;20025;-67
2023/08/01 05:22:44;;;;;;;6.40;2.17;;;;;;;-144.48;100.00;62369.91;5010308;28;20025;-68
2023/08/01 05:25:09;;;;;;;5.30;1.80;;;;;;;-144.48;100.00;62369.91;5009435;28;20602;-66
2023/08/01 05:27:35;;;;;;;6.80;2.30;;;;;;;-144.48;100.00;62369.91;5009851;28;20555;-67
2023/08/01 05:30:00;;;;;;;5.00;2.00;;;;;;;-144.48;100.00;62369.91;5009892;28;20025;-67
2023/08/01 05:32:25;;;;;;;4.90;2.25;;;;;;;-144.48;100.00;62369.91;5004486;28;20105;-68
2023/08/01 05:34:51;;;;;;;7.85;2.00;;;;;;;-144.48;100.00;62369.91;5009477;28;20032;-67
2023/08/01 05:37:16;;;;;;;5.32;2.25;;;;;;;-144.48;100.00;62369.91;5009800;28;20032;-66
2023/08/01 05:39:42;;;;;;;6.82;2.13;;;;;;;-144.48;100.00;62369.91;5009739;28;20443;-67
2023/08/01 05:42:10;;;;;;;5.05;1.88;;;;;;;-144.48;100.00;62369.91;4991699;28;20037;-68
2023/08/01 05:44:35;;;;;;;7.03;1.70;;;;;;;-144.48;100.00;62369.91;5009308;28;20026;-67
2023/08/01 05:47:00;;;;;;;5.70;1.65;;;;;;;-144.48;100.00;62369.91;5009717;28;20022;-66
2023/08/01 05:49:26;;;;;;;6.60;2.10;;;;;;;-144.48;100.00;62369.91;5009988;28;20026;-67
2023/08/01 05:51:51;;;;;;;3.97;1.48;;;;;;;-144.48;100.00;62369.91;5010266;28;20018;-67
2023/08/01 05:54:17;;;;;;;5.43;1.70;;;;;;;-144.48;100.00;62369.91;5009496;28;20222;-68
2023/08/01 05:56:42;;;;;;;2.95;1.50;;;;;;;-144.48;100.00;62369.91;5009359;28;20045;-67
2023/08/01 05:59:08;;;;;;;4.28;1.90;;;;;;;-144.48;100.00;62369.91;5009120;28;20049;-66
2023/08/01 06:01:34;;;;;;;3.88;1.52;;;;;;;-144.48;100.00;62369.91;4991043;28;20068;-67
2023/08/01 06:03:59;;;;;;;4.80;1.50;;;;;;;-144.48;100.00;62369.91;5008929;28;20033;-68
2023/08/01 06:06:25;;;;;;;4.72;1.73;;;;;;;-144.48;100.00;62369.91;5010097;28;20029;-67
2023/08/01 06:08:51;;;;;;;4.95;1.52;;;;;;;-144.48;100.00;62369.91;5009815;28;20033;-67
2023/08/01 06:11:17;;;;;;;3.20;1.38;;;;;;;-144.48;100.00;62369.91;5009984;28;20112;-67
2023/08/01 06:13:42;;;;;;;5.10;1.77;;;;;;;-144.48;100.00;62369.91;5009276;28;20057;-67
2023/08/01 06:16:08;;;;;;;3.50;1.50;;;;;;;-144.48;100.00;62369.91;5009293;28;20105;-66
2023/08/01 06:18:33;;;;;;;3.45;1.60;;;;;;;-144.48;100.00;62369.91;5009502;28;20053;-68
2023/08/01 06:20:58;;;;;;;3.05;1.40;;;;;;;-144.48;100.00;62369.91;5009703;28;20030;-66
2023/08/01 06:23:24;;;;;;;6.28;1.88;;;;;;;-144.48;100.00;62369.91;5009797;28;20052;-67
2023/08/01 06:25:49;;;;;;;4.25;1.38;;;;;;;-144.48;100.00;62369.91;5009392;28;20094;-68
2023/08/01 06:28:14;;;;;;;3.72;1.52;;;;;;;-144.48;100.00;62369.91;5009395;28;20026;-67
2023/08/01 06:30:40;;;;;;;5.28;1.33;;;;;;;-144.48;100.00;62369.91;5009387;28;20022;-67
2023/08/01 06:33:05;;;;;;;4.75;1.30;;;;;;;-144.48;100.00;62369.91;5003726;28;20046;-69
2023/08/01 06:35:30;;;;;;;5.43;0.85;;;;;;;-144.48;100.00;62369.91;5009137;28;20022;-65
2023/08/01 06:37:56;;;;;;;2.28;0.80;;;;;;;-144.48;100.00;62369.91;5009334;28;20479;-68
2023/08/01 06:40:21;;;;;;;1.15;0.60;;;;;;;-144.48;100.00;62369.91;5009688;28;20021;-67
2023/08/01 06:42:46;;;;;;;3.22;1.00;;;;;;;-144.48;100.00;62369.91;5008480;28;20053;-66
2023/08/01 06:45:12;;;;;;;2.38;0.70;;;;;;;-144.48;100.00;62369.91;5009500;28;20021;-68
2023/08/01 06:47:37;;;;;;;4.40;0.90;;;;;;;-144.48;100.00;62369.91;5009282;28;20017;-67
2023/08/01 06:50:04;;;;;;;2.03;0.90;;;;;;;-144.48;100.00;62369.91;5009205;28;20084;-67
2023/08/01 06:52:30;;;;;;;4.28;0.93;;;;;;;-144.48;100.00;62369.91;5009210;28;20297;-65
2023/08/01 06:54:55;;;;;;;4.75;0.85;;;;;;;-144.48;100.00;62369.91;5009292;28;20041;-67
2023/08/01 06:57:20;;;;;;;1.30;0.70;;;;;;;-144.48;100.00;62369.91;5009239;28;20487;-68
2023/08/01 06:59:46;;;;;;;3.00;0.80;;;;;;;-144.48;100.00;62369.91;5009656;28;20037;-67
2023/08/01 07:02:11;;;;;;;3.75;0.73;;;;;;;-144.48;100.00;62369.91;5012302;28;20471;-68
2023/08/01 07:04:37;;;;;;;1.58;0.60;;;;;;;-144.48;100.00;62369.91;5011920;28;20022;-66
2023/08/01 07:07:03;;;;;;;4.63;0.80;;;;;;;-144.48;100.00;62369.91;5012784;28;20026;-68
2023/08/01 07:09:29;;;;;;;2.97;0.70;;;;;;;-144.48;100.00;62369.91;5012974;28;20026;-67
2023/08/01 07:11:54;;;;;;;1.58;0.70;;;;;;;-144.48;100.00;62369.91;5012489;28;20020;-68
2023/08/01 07:14:20;;;;;;;2.05;0.70;;;;;;;-144.48;100.00;62369.91;4984307;28;20030;-65
2023/08/01 07:16:45;;;;;;;3.58;1.00;;;;;;;-144.48;100.00;62369.91;5010140;28;20025;-66
2023/08/01 07:19:10;;;;;;;1.20;0.80;;;;;;;-144.48;100.00;62369.91;5012481;28;20388;-65
2023/08/01 07:21:36;;;;;;;3.90;0.95;;;;;;;-144.48;100.00;62369.91;5012246;28;20036;-65
2023/08/01 07:24:01;;;;;;;1.05;0.63;;;;;;;-144.48;100.00;62369.91;5012187;28;20021;-64
2023/08/01 07:26:28;;;;;;;1.38;0.70;;;;;;;-144.48;100.00;62369.91;5011560;28;20018;-66
2023/08/01 07:28:54;;;;;;;3.55;0.80;;;;;;;-144.48;100.00;62369.91;4994503;28;20041;-67
2023/08/01 07:31:19;;;;;;;1.85;0.80;;;;;;;-144.48;100.00;62369.91;5007633;28;20018;-64
2023/08/01 07:33:44;;;;;;;1.60;0.70;;;;;;;-144.48;100.00;62369.91;5048240;22;20044;-64
2023/08/01 07:36:10;;;;;;;2.28;0.90;;;;;;;-144.48;100.00;62369.91;5050595;28;20059;-66
2023/08/01 07:38:35;;;;;;;1.58;0.70;;;;;;;-144.48;100.00;62369.91;5050320;28;20043;-65
2023/08/01 07:41:07;;;;;;;1.85;0.70;;;;;;;-144.48;100.00;62369.91;5049420;28;20262;-67
2023/08/01 07:43:32;;;;;;;2.65;0.50;;;;;;;-144.48;100.00;62369.91;5050501;28;20112;-66
2023/08/01 07:45:58;;;;;;;10.10;1.25;;;;;;;-144.48;100.00;62369.91;5037081;28;20108;-66
2023/08/01 07:48:24;;;;;;;2.35;0.80;;;;;;;-144.48;100.00;62369.91;5021082;28;20060;-67
2023/08/01 07:50:49;;;;;;;2.63;0.70;;;;;;;-144.48;100.00;62369.91;5043570;28;20395;-68
2023/08/01 07:53:14;;;;;;;1.05;0.57;;;;;;;-144.48;100.00;62369.91;5041067;28;20021;-64
2023/08/01 07:55:40;;;;;;;5.07;0.75;;;;;;;-144.48;100.00;62369.91;5036490;28;20025;-66
2023/08/01 07:58:05;;;;;;;2.38;1.02;;;;;;;-144.48;100.00;62369.91;5038952;28;20109;-64
2023/08/01 08:00:30;;;;;;;1.15;0.50;;;;;;;-144.48;100.00;62369.91;5030051;28;20030;-67
2023/08/01 08:02:57;;;;;;;3.70;0.82;;;;;;;-144.48;100.00;62369.91;5029649;28;20161;-65
2023/08/01 08:05:22;;;;;;;2.00;0.77;;;;;;;-144.48;100.00;62369.91;5043176;28;20082;-67
2023/08/01 08:07:48;;;;;;;2.70;0.73;;;;;;;-144.48;100.00;62369.91;5040543;28;20029;-63
2023/08/01 08:10:14;;;;;;;1.08;0.57;;;;;;;-144.48;100.00;62369.91;5019220;28;20037;-67
2023/08/01 08:12:39;;;;;;;1.10;0.63;;;;;;;-144.48;100.00;62369.91;5021683;28;20028;-68
2023/08/01 08:15:05;;;;;;;4.63;0.90;;;;;;;-144.48;100.00;62369.91;5043128;28;20025;-65
2023/08/01 08:17:30;;;;;;;6.30;0.80;;;;;;;-144.48;100.00;62369.91;5040107;28;20040;-67
2023/08/01 08:19:56;;;;;;;5.28;0.80;;;;;;;-144.48;100.00;62369.91;5037115;28;20191;-66
2023/08/01 08:22:21;;;;;;;6.93;1.55;;;;;;;-144.48;100.00;62369.91;5041133;28;20475;-68
2023/08/01 08:24:46;;;;;;;7.32;0.90;;;;;;;-144.48;100.00;62369.91;5023507;28;20035;-65
2023/08/01 08:27:12;;;;;;;3.38;0.73;;;;;;;-144.48;100.00;62369.91;5038733;28;20014;-67
2023/08/01 08:29:38;;;;;;;0.90;0.85;;;;;;;-144.48;100.00;62369.91;5044131;28;20425;-66
2023/08/01 08:32:04;;;;;;;7.20;0.77;;;;;;;-144.48;100.00;62369.91;5007667;28;20014;-66
2023/08/01 08:34:29;;;;;;;2.97;0.73;;;;;;;-144.48;100.00;62369.91;5034089;28;20081;-67
2023/08/01 08:36:55;;;;;;;7.82;0.93;;;;;;;-144.48;100.00;62369.91;5039710;28;20028;-65
2023/08/01 08:39:20;;;;;;;0.65;0.50;;;;;;;-144.48;100.00;62369.91;5033593;28;20020;-66
2023/08/01 08:41:48;;;;;;;4.65;0.70;;;;;;;-144.48;100.00;62369.91;5038440;28;20030;-67
2023/08/01 08:44:19;;;;;;;1.73;0.43;;;;;;;-144.48;100.00;62369.91;5043006;28;20033;-62
2023/08/01 08:46:50;;;;;;;1.38;0.63;;;;;;;-144.48;100.00;62369.91;5040227;28;20158;-64
2023/08/01 08:49:17;;;;;;;1.70;0.73;;;;;;;-144.48;100.00;62369.91;5035510;28;20052;-66
2023/08/01 08:51:43;;;;;;;0.93;0.57;;;;;;;-144.48;100.00;62369.91;5036831;28;20124;-66
2023/08/01 08:54:09;;;;;;;1.52;0.90;;;;;;;-144.48;100.00;62369.91;5042236;28;20499;-67
2023/08/01 08:56:35;;;;;;;2.58;0.65;;;;;;;-144.48;100.00;62369.91;5040808;28;20051;-66
2023/08/01 08:59:00;;;;;;;1.27;0.52;;;;;;;-144.48;100.00;62369.91;5048915;28;20075;-65
2023/08/01 09:01:26;;;;;;;1.42;0.77;;;;;;;-144.48;100.00;62369.91;5048529;28;20052;-68
2023/08/01 09:03:53;;;;;;;1.58;0.60;;;;;;;-144.48;100.00;62369.91;5047916;28;20024;-66
2023/08/01 09:06:30;;;;;;;5.40;1.50;;;;;;;-144.48;100.00;62369.91;5030709;28;20095;-65
2023/08/01 09:09:10;;;;;;;2.30;0.88;;;;;;;-144.48;100.00;62369.91;5031137;28;20031;-68
2023/08/01 09:11:46;;;;;;;5.40;1.25;;;;;;;-144.48;100.00;62369.91;5048729;28;20106;-70
2023/08/01 09:14:12;;;;;;;2.33;0.88;;;;;;;-144.48;100.00;62369.91;5048155;28;20021;-67
2023/08/01 09:16:39;;;;;;;2.80;0.90;;;;;;;-144.48;100.00;62369.91;5048368;28;20096;-67
2023/08/01 09:19:05;;;;;;;3.20;0.98;;;;;;;-144.48;100.00;62369.91;5048621;28;20219;-67
2023/08/01 09:21:35;;;;;;;5.50;1.30;;;;;;;-144.48;100.00;62369.91;5048083;28;20494;-63
2023/08/01 09:24:15;;;;;;;4.43;1.23;;;;;;;-144.48;100.00;62369.91;5029251;28;20028;-63
2023/08/01 09:26:41;;;;;;;4.35;1.35;;;;;;;-144.48;100.00;62369.91;5027867;28;20104;-67
2023/08/01 09:29:07;;;;;;;4.20;1.02;;;;;;;-144.48;100.00;62369.91;5028909;28;20550;-66
2023/08/01 09:31:35;;;;;;;7.00;1.08;;;;;;;-144.48;100.00;62369.91;5022665;28;20021;-63
2023/08/01 09:34:05;;;;;;;5.78;1.00;;;;;;;-144.48;100.00;62369.91;5027870;28;20022;-69
2023/08/01 09:36:30;;;;;;;2.83;1.20;;;;;;;-144.48;100.00;62369.91;5022012;28;20143;-69
2023/08/01 09:39:01;;;;;;;7.85;1.30;;;;;;;-144.48;100.00;62369.91;5048214;28;20088;-62
2023/08/01 09:41:26;;;;;;;2.17;0.82;;;;;;;-144.48;100.00;62369.91;5004146;28;20571;-64
2023/08/01 09:43:52;;;;;;;4.15;1.00;;;;;;;-144.48;100.00;62369.91;5034696;28;20103;-68
2023/08/01 09:46:17;;;;;;;1.35;0.70;;;;;;;-144.48;100.00;62369.91;5041513;28;20743;-65
2023/08/01 09:48:43;;;;;;;1.67;0.70;;;;;;;-144.48;100.00;62369.91;5028919;28;20455;-64
2023/08/01 09:51:13;;;;;;;6.15;1.02;;;;;;;-144.48;100.00;62369.91;5041238;28;20431;-66
2023/08/01 09:53:52;;;;;;;3.13;0.73;;;;;;;-144.48;100.00;62369.91;5042053;28;20021;-67
2023/08/01 09:56:23;;;;;;;1.90;0.90;;;;;;;-144.48;100.00;62369.91;5038068;28;20219;-66
2023/08/01 09:58:50;;;;;;;1.05;0.60;;;;;;;-144.48;100.00;62369.91;5034649;28;20108;-68
2023/08/01 10:01:17;;;;;;;1.85;0.80;;;;;;;-144.48;100.00;62369.91;5038124;28;20467;-67
2023/08/01 10:03:49;;;;;;;3.05;1.00;;;;;;;-144.48;100.00;62369.91;5041474;28;20045;-66
2023/08/01 10:06:22;;;;;;;2.05;0.77;;;;;;;-144.48;100.00;62369.91;5039215;28;20032;-66
2023/08/01 10:08:50;;;;;;;0.82;0.50;;;;;;;-144.48;100.00;62369.91;5035480;28;20025;-67
2023/08/01 10:11:18;;;;;;;6.15;0.90;;;;;;;-144.48;100.00;62369.91;5036376;28;20423;-68
2023/08/01 10:13:44;;;;;;;2.35;0.80;;;;;;;-144.48;100.00;62369.91;5028252;28;20029;-68
2023/08/01 10:16:11;;;;;;;5.25;0.90;;;;;;;-144.48;100.00;62369.91;5040695;28;20031;-65
2023/08/01 10:18:38;;;;;;;5.15;1.20;;;;;;;-144.48;100.00;62369.91;5034486;28;20025;-66
2023/08/01 10:21:09;;;;;;;2.72;0.65;;;;;;;-144.48;100.00;62369.91;5034691;28;20034;-66
2023/08/01 10:23:35;;;;;;;3.80;0.80;;;;;;;-144.48;100.00;62369.91;5020776;28;20482;-67
2023/08/01 10:26:06;;;;;;;1.05;0.60;;;;;;;-144.48;100.00;62369.91;5027921;28;20072;-65
2023/08/01 10:28:33;;;;;;;0.65;0.40;;;;;;;-144.48;100.00;62369.91;5015402;28;20490;-67
2023/08/01 10:31:08;;;;;;;1.70;0.85;;;;;;;-144.48;100.00;62369.91;5030769;28;20129;-66
2023/08/01 10:33:34;;;;;;;2.47;0.77;;;;;;;-144.48;100.00;62369.91;5024956;28;20029;-67
2023/08/01 10:35:59;;;;;;;2.53;0.68;;;;;;;-144.48;100.00;62369.91;5043906;28;20018;-67
2023/08/01 10:38:25;;;;;;;2.42;0.70;;;;;;;-144.48;100.00;62369.91;5031912;28;20018;-65
2023/08/01 10:40:51;;;;;;;1.77;0.70;;;;;;;-144.48;100.00;62369.91;5044194;28;20450;-68
2023/08/01 10:43:24;;;;;;;3.53;1.40;;;;;;;-144.48;100.00;62369.91;5040683;28;20024;-68
2023/08/01 10:46:03;;;;;;;1.38;0.70;;;;;;;-144.48;100.00;62369.91;5037665;28;20055;-67
2023/08/01 10:48:28;;;;;;;2.33;0.90;;;;;;;-144.48;100.00;62369.91;5039922;28;20112;-64
2023/08/01 10:50:57;;;;;;;1.65;0.80;;;;;;;-144.48;100.00;62369.91;5044573;28;20109;-67
2023/08/01 10:53:22;;;;;;;2.00;0.60;;;;;;;-144.48;100.00;62369.91;5042700;28;20160;-66
2023/08/01 10:55:48;;;;;;;2.38;0.63;;;;;;;-144.48;100.00;62369.91;5019853;28;20112;-64
2023/08/01 10:58:14;;;;;;;7.30;0.88;;;;;;;-144.48;100.00;62369.91;5038775;28;20459;-65
2023/08/01 11:00:41;;;;;;;1.88;0.73;;;;;;;-144.48;100.00;62369.91;5044889;28;20128;-66
2023/08/01 11:03:07;;;;;;;2.30;0.90;;;;;;;-144.48;100.00;62369.91;5024503;28;20028;-67
2023/08/01 11:05:32;;;;;;;1.90;1.00;;;;;;;-144.48;100.00;62369.91;5019122;28;20356;-67